This is the latest recevied weather packets stored in our database for station/object N0NAI-13. If no packets are shown the sender has not sent any weather packets the latest 1 day(s).
| Time | Temp. | Humidity | Pressure | Rain* | Wind** | Luminosity | Snow |
|---|---|---|---|---|---|---|---|
| 1777994732 | 10° C | 43% | 1012.9 hPa | 0 mm | 1.34 m/s, 324° | - | - |
| 1777994118 | 10° C | 44% | 1013 hPa | 0 mm | 1.34 m/s, 301° | - | - |
| 1777993520 | 9.44° C | 45% | 1012.9 hPa | 0 mm | 1.79 m/s, 272° | - | - |
| 1777992923 | 10° C | 47% | 1013 hPa | 0 mm | 0.89 m/s, 186° | - | - |
| 1777992320 | 9.44° C | 45% | 1012.9 hPa | 0 mm | 2.24 m/s, 292° | - | - |
| 1777991717 | 8.89° C | 49% | 1012.9 hPa | 0 mm | 1.79 m/s, 305° | - | - |
| 1777991132 | 8.33° C | 51% | 1012.9 hPa | 0 mm | 0.89 m/s, 10° | - | - |
| 1777990517 | 7.78° C | 55% | 1013 hPa | 0 mm | 0.89 m/s, 340° | - | - |
| 1777989920 | 7.22° C | 58% | 1013 hPa | 0 mm | 0.89 m/s, 336° | - | - |
| 1777989322 | 6.67° C | 59% | 1012.9 hPa | 0 mm | 0.89 m/s, 272° | - | - |
| 1777988725 | 6.11° C | 59% | 1012.9 hPa | 0 mm | 1.34 m/s, 339° | - | - |
| 1777988128 | 6.11° C | 60% | 1012.9 hPa | 0 mm | 0.89 m/s, 314° | - | - |
| 1777987531 | 5.56° C | 60% | 1012.8 hPa | 0 mm | 1.79 m/s, 357° | - | - |
| 1777986916 | 5.56° C | 63% | 1012.7 hPa | 0 mm | 1.34 m/s, 282° | - | - |
| 1777986319 | 5.56° C | 65% | 1012.7 hPa | 0 mm | 1.34 m/s, 292° | - | - |
| 1777985722 | 5° C | 67% | 1012.4 hPa | 0 mm | 0.89 m/s, 271° | - | - |
| 1777985125 | 4.44° C | 70% | 1012.4 hPa | 0 mm | 0 m/s | - | - |
| 1777984527 | 3.89° C | 73% | 1012.3 hPa | 0 mm | 0.45 m/s, 345° | - | - |
| 1777983930 | 2.22° C | 77% | 1012.1 hPa | 0 mm | 0 m/s | - | - |
| 1777972532 | 2.22° C | 74% | 1009.7 hPa | 0 mm | 0 m/s | - | - |
| 1777971917 | 2.22° C | 74% | 1009.8 hPa | 0 mm | 0 m/s | - | - |
| 1777971320 | 2.78° C | 74% | 1009.6 hPa | 0 mm | 0 m/s | - | - |
| 1777969523 | 2.78° C | 73% | 1009.2 hPa | 0 mm | 0 m/s | - | - |
* Rain latest hour (hover to see other rain measurements)
** Current wind speed in m/s (hover to see current wind gust speed)